Time;durP1;ratioP1;P1;durP2;ratioP2;P2;SDS_P1;SDS_P2;PMS_P1;PMS_P2;Temp;Humidity;BMP_temperature;BMP_pressure;BME280_temperature;BME280_humidity;BME280_pressure;Samples;Min_cycle;Max_cycle;Signal;HPM_P1;HPM_P2
2022/05/12 00:02:11;;;;;;;27.52;14.77;;;19.60;94.90;;;;;;5032583;28;20025;-67
2022/05/12 00:04:38;;;;;;;24.95;15.00;;;19.60;94.90;;;;;;5033068;28;20100;-68
2022/05/12 00:07:05;;;;;;;26.02;14.60;;;19.60;95.40;;;;;;5033230;28;20453;-68
2022/05/12 00:09:30;;;;;;;18.15;13.05;;;19.50;95.30;;;;;;5033026;28;20068;-67
2022/05/12 00:11:56;;;;;;;23.77;13.77;;;19.50;95.50;;;;;;5033232;28;20045;-68
2022/05/12 00:14:23;;;;;;;21.08;14.13;;;19.50;95.60;;;;;;5033048;28;20147;-68
2022/05/12 00:16:49;;;;;;;28.67;14.27;;;19.50;95.70;;;;;;5033008;28;20029;-67
2022/05/12 00:19:14;;;;;;;23.92;14.23;;;19.40;95.90;;;;;;5032967;28;20033;-68
2022/05/12 00:21:41;;;;;;;26.08;14.70;;;19.40;96.10;;;;;;5033462;28;20033;-67
2022/05/12 00:24:08;;;;;;;22.42;14.55;;;19.40;96.20;;;;;;5033093;28;20017;-67
2022/05/12 00:26:36;;;;;;;26.70;15.45;;;19.40;96.40;;;;;;5031580;28;20108;-69
2022/05/12 00:29:05;;;;;;;21.63;13.98;;;19.30;96.50;;;;;;5032619;28;20033;-68
2022/05/12 00:31:33;;;;;;;24.52;14.77;;;19.40;96.60;;;;;;5032777;28;20021;-67
2022/05/12 00:33:59;;;;;;;23.23;14.82;;;19.40;96.80;;;;;;5032887;28;20114;-68
2022/05/12 00:36:25;;;;;;;29.90;14.88;;;19.30;96.80;;;;;;5031560;28;20021;-69
2022/05/12 00:38:50;;;;;;;24.48;14.70;;;19.30;97.10;;;;;;5032862;28;20049;-68
2022/05/12 00:41:16;;;;;;;26.05;14.98;;;19.30;97.20;;;;;;5032900;28;20036;-68
2022/05/12 00:43:50;;;;;;;22.92;15.32;;;19.30;97.30;;;;;;5033135;28;20112;-68
2022/05/12 00:46:25;;;;;;;21.92;15.07;;;19.30;97.50;;;;;;5032686;28;20507;-68
2022/05/12 00:48:54;;;;;;;32.03;15.20;;;19.30;97.50;;;;;;5032704;28;20028;-68
2022/05/12 00:51:26;;;;;;;29.15;15.68;;;19.30;97.60;;;;;;5032608;28;20104;-68
2022/05/12 00:53:57;;;;;;;24.85;15.32;;;19.30;97.80;;;;;;5032450;28;20040;-68
2022/05/12 00:56:24;;;;;;;31.10;15.27;;;19.20;97.90;;;;;;5032508;28;20100;-68
2022/05/12 00:58:55;;;;;;;24.40;15.50;;;19.20;98.00;;;;;;5032551;28;20052;-68
2022/05/12 01:01:21;;;;;;;25.33;15.70;;;19.20;98.10;;;;;;5032363;28;20108;-67
2022/05/12 01:03:48;;;;;;;24.50;15.90;;;19.20;98.10;;;;;;5032494;28;20064;-68
2022/05/12 01:06:15;;;;;;;26.63;15.93;;;19.10;98.30;;;;;;5032558;28;20030;-69
2022/05/12 01:08:41;;;;;;;24.50;16.13;;;19.10;98.50;;;;;;5031033;28;20029;-67
2022/05/12 01:11:12;;;;;;;25.90;15.45;;;19.10;98.60;;;;;;5032524;28;20032;-68
2022/05/12 01:13:38;;;;;;;26.10;15.38;;;19.10;98.80;;;;;;5032650;28;20029;-68
2022/05/12 01:16:05;;;;;;;23.92;15.82;;;19.00;98.90;;;;;;5035362;28;20025;-68
2022/05/12 01:18:35;;;;;;;22.73;16.38;;;19.00;99.10;;;;;;5036040;28;20434;-69
2022/05/12 01:21:01;;;;;;;23.02;15.80;;;19.00;99.20;;;;;;5035842;28;20048;-68
2022/05/12 01:23:33;;;;;;;20.98;16.10;;;19.00;99.40;;;;;;5036233;28;20014;-69
2022/05/12 01:26:03;;;;;;;24.02;16.58;;;19.00;99.40;;;;;;5035843;28;20026;-68
2022/05/12 01:28:29;;;;;;;24.55;16.80;;;19.00;99.40;;;;;;5034361;28;20033;-68
2022/05/12 01:30:56;;;;;;;23.30;15.57;;;19.00;99.50;;;;;;5035805;28;20064;-68
2022/05/12 01:33:23;;;;;;;27.17;16.85;;;19.00;99.60;;;;;;5035707;28;20049;-68
2022/05/12 01:35:49;;;;;;;23.48;15.32;;;19.00;99.80;;;;;;5035580;28;20121;-67
2022/05/12 01:38:15;;;;;;;23.98;16.55;;;18.90;99.90;;;;;;5035612;28;20392;-68
2022/05/12 01:40:43;;;;;;;24.77;16.90;;;18.90;99.90;;;;;;5034078;28;20071;-68
2022/05/12 01:43:09;;;;;;;27.05;16.83;;;19.00;99.90;;;;;;5035294;28;20083;-69
2022/05/12 01:45:34;;;;;;;28.08;16.65;;;18.90;99.90;;;;;;5035032;28;20529;-68
2022/05/12 01:48:00;;;;;;;28.48;17.55;;;18.90;99.90;;;;;;5035403;28;20049;-67
2022/05/12 01:50:26;;;;;;;29.38;17.50;;;18.90;99.90;;;;;;5035167;28;20045;-68
2022/05/12 01:52:51;;;;;;;22.88;15.88;;;18.90;99.90;;;;;;5033940;28;20025;-68
2022/05/12 01:55:20;;;;;;;25.92;15.45;;;19.00;99.90;;;;;;5035486;28;20075;-67
2022/05/12 01:57:46;;;;;;;26.58;15.95;;;18.90;99.90;;;;;;5035120;28;20032;-68
2022/05/12 02:00:16;;;;;;;25.23;15.80;;;18.90;99.90;;;;;;5035209;28;20037;-67
2022/05/12 02:02:42;;;;;;;26.58;16.35;;;19.00;99.90;;;;;;5035223;28;20021;-68
2022/05/12 02:05:10;;;;;;;26.02;17.52;;;18.90;99.90;;;;;;5033544;28;20084;-67
2022/05/12 02:07:47;;;;;;;24.00;16.48;;;18.90;99.90;;;;;;5035232;28;20021;-67
2022/05/12 02:10:20;;;;;;;31.63;16.88;;;18.80;99.90;;;;;;5034890;28;20033;-67
2022/05/12 02:12:46;;;;;;;26.07;16.33;;;18.80;99.90;;;;;;5035045;28;20467;-68
2022/05/12 02:15:13;;;;;;;25.38;16.52;;;18.90;99.90;;;;;;5034942;28;20270;-67
2022/05/12 02:17:38;;;;;;;25.50;16.73;;;18.90;99.90;;;;;;5035164;28;20026;-68
2022/05/12 02:20:05;;;;;;;22.80;16.25;;;18.90;99.90;;;;;;5034819;28;20030;-68
2022/05/12 02:22:32;;;;;;;26.50;15.82;;;19.00;99.90;;;;;;5034960;28;20021;-68
2022/05/12 02:24:58;;;;;;;30.17;16.95;;;19.00;99.90;;;;;;5034661;28;20087;-67
2022/05/12 02:27:24;;;;;;;24.63;16.02;;;19.00;99.90;;;;;;5033229;28;20021;-68
2022/05/12 02:29:49;;;;;;;27.45;16.38;;;19.00;99.90;;;;;;5034733;28;20144;-67
2022/05/12 02:32:15;;;;;;;22.85;15.82;;;19.00;99.90;;;;;;5034466;28;20529;-68
2022/05/12 02:34:41;;;;;;;24.95;15.43;;;19.00;99.90;;;;;;5034363;28;20058;-66
2022/05/12 02:37:08;;;;;;;22.48;16.10;;;19.00;99.90;;;;;;5034705;28;20097;-68
2022/05/12 02:39:40;;;;;;;28.90;14.85;;;19.00;99.90;;;;;;5034342;28;20029;-68
2022/05/12 02:42:08;;;;;;;23.63;12.95;;;18.90;99.90;;;;;;5034583;28;20030;-67
2022/05/12 02:44:34;;;;;;;23.98;12.95;;;18.90;99.70;;;;;;5034340;28;20117;-68
2022/05/12 02:47:00;;;;;;;19.58;12.40;;;18.80;99.40;;;;;;5034423;28;20068;-68
2022/05/12 02:49:26;;;;;;;22.50;12.13;;;18.80;99.00;;;;;;5034757;28;20091;-68
2022/05/12 02:51:52;;;;;;;24.88;13.05;;;18.70;98.60;;;;;;5034531;28;20017;-68
2022/05/12 02:54:19;;;;;;;21.85;13.70;;;18.70;98.30;;;;;;5034262;28;20029;-68
2022/05/12 02:56:46;;;;;;;21.35;13.27;;;18.70;98.00;;;;;;5034153;28;20436;-67
2022/05/12 02:59:12;;;;;;;17.08;12.15;;;18.60;97.70;;;;;;5033694;28;20099;-68
2022/05/12 03:01:38;;;;;;;17.92;12.50;;;18.60;97.70;;;;;;5034197;28;20029;-69
2022/05/12 03:04:04;;;;;;;18.42;11.18;;;18.60;97.50;;;;;;5033983;28;20025;-68
2022/05/12 03:06:30;;;;;;;18.83;10.85;;;18.50;97.10;;;;;;5033917;28;20124;-68
2022/05/12 03:08:58;;;;;;;18.10;11.82;;;18.50;96.00;;;;;;5033809;28;20053;-68
2022/05/12 03:11:24;;;;;;;17.20;10.80;;;18.40;95.80;;;;;;5033562;28;20029;-66
2022/05/12 03:13:50;;;;;;;21.70;9.95;;;18.40;95.60;;;;;;5034232;28;20033;-69
2022/05/12 03:16:20;;;;;;;16.08;10.32;;;18.40;95.10;;;;;;5034372;28;20328;-68
2022/05/12 03:18:51;;;;;;;14.32;10.00;;;18.30;94.70;;;;;;5033574;28;20068;-68
2022/05/12 03:21:17;;;;;;;17.67;10.90;;;18.30;94.40;;;;;;5033528;28;20398;-68
2022/05/12 03:23:43;;;;;;;19.42;11.02;;;18.20;94.50;;;;;;5033637;28;20029;-68
2022/05/12 03:26:09;;;;;;;16.17;10.63;;;18.10;94.30;;;;;;5033414;28;20109;-68
2022/05/12 03:28:36;;;;;;;17.05;10.50;;;18.10;94.50;;;;;;5033276;28;20029;-68
2022/05/12 03:31:02;;;;;;;18.33;10.52;;;18.10;94.50;;;;;;5033484;28;20091;-68
2022/05/12 03:33:28;;;;;;;21.15;10.60;;;18.10;94.20;;;;;;5033309;28;20029;-68
2022/05/12 03:35:54;;;;;;;22.58;11.02;;;18.00;94.20;;;;;;5033440;28;20044;-68
2022/05/12 03:38:20;;;;;;;16.33;10.02;;;18.00;94.20;;;;;;5032866;28;20030;-67
2022/05/12 03:40:46;;;;;;;20.13;11.13;;;18.00;94.10;;;;;;5032143;28;20124;-67
2022/05/12 03:44:46;;;;;;;16.77;9.95;;;18.10;94.10;;;;;;5032738;28;20450;-68
2022/05/12 03:45:58;;;;;;;19.70;9.70;;;18.20;93.90;;;;;;5033381;28;20053;-68
2022/05/12 03:48:23;;;;;;;19.20;10.93;;;18.10;93.50;;;;;;5033191;28;20048;-68
2022/05/12 03:50:49;;;;;;;26.52;10.23;;;18.10;93.60;;;;;;5033251;28;20026;-68
2022/05/12 03:53:15;;;;;;;20.27;9.82;;;18.10;93.50;;;;;;5031709;28;20048;-67
2022/05/12 03:55:41;;;;;;;22.73;9.82;;;18.10;93.40;;;;;;5032830;28;20026;-68
2022/05/12 03:58:06;;;;;;;17.58;9.73;;;18.10;93.20;;;;;;5032994;28;20487;-68
2022/05/12 04:00:34;;;;;;;18.75;11.15;;;18.20;93.20;;;;;;5032828;28;20109;-68
2022/05/12 04:03:00;;;;;;;16.13;10.30;;;18.10;93.10;;;;;;5032925;28;20056;-67
2022/05/12 04:05:27;;;;;;;17.45;10.27;;;18.10;93.20;;;;;;5032792;28;20025;-68
2022/05/12 04:07:53;;;;;;;19.35;10.10;;;18.10;93.10;;;;;;5032784;28;20026;-68
2022/05/12 04:10:21;;;;;;;18.88;10.77;;;18.10;93.30;;;;;;5032666;28;20057;-67
2022/05/12 04:12:48;;;;;;;26.02;12.50;;;18.10;93.40;;;;;;5033026;28;20092;-67
2022/05/12 04:15:16;;;;;;;23.25;11.48;;;18.10;93.20;;;;;;5032887;28;20040;-68
2022/05/12 04:17:43;;;;;;;17.30;12.13;;;18.10;93.30;;;;;;5032938;28;20421;-68
2022/05/12 04:20:14;;;;;;;21.45;11.13;;;18.20;93.30;;;;;;5032675;28;20033;-68
2022/05/12 04:22:43;;;;;;;19.27;11.93;;;18.20;93.20;;;;;;5032649;28;20021;-69
2022/05/12 04:25:09;;;;;;;16.92;12.00;;;18.20;93.40;;;;;;5032711;28;20026;-67
2022/05/12 04:27:39;;;;;;;21.58;12.70;;;18.20;93.60;;;;;;5033059;28;20048;-68
2022/05/12 04:30:06;;;;;;;22.90;13.20;;;18.10;93.70;;;;;;5031532;28;20044;-68
2022/05/12 04:32:32;;;;;;;16.77;11.48;;;18.10;94.00;;;;;;5032789;28;20029;-67
2022/05/12 04:35:11;;;;;;;16.23;12.65;;;18.10;93.90;;;;;;5032367;28;20030;-67
2022/05/12 04:37:39;;;;;;;24.13;12.25;;;18.20;93.90;;;;;;5032711;28;20112;-68
2022/05/12 04:40:10;;;;;;;18.77;13.35;;;18.20;93.80;;;;;;5032443;28;20033;-67
2022/05/12 04:42:36;;;;;;;24.17;13.13;;;18.30;93.80;;;;;;5032598;28;20029;-67
2022/05/12 04:45:03;;;;;;;29.27;13.45;;;18.30;93.70;;;;;;5032149;28;20077;-67
2022/05/12 04:47:29;;;;;;;21.05;12.32;;;18.40;93.60;;;;;;5031178;28;20029;-68
2022/05/12 04:49:56;;;;;;;23.02;13.43;;;18.40;93.40;;;;;;5035404;28;20022;-68
2022/05/12 04:52:23;;;;;;;18.05;12.63;;;18.50;93.20;;;;;;5036066;28;20091;-69
2022/05/12 04:54:49;;;;;;;20.73;12.75;;;18.60;93.10;;;;;;5035937;28;20478;-68
2022/05/12 04:57:15;;;;;;;23.55;12.07;;;18.50;92.80;;;;;;5035331;28;20032;-67
2022/05/12 04:59:40;;;;;;;22.75;12.80;;;18.50;93.00;;;;;;5036429;28;20033;-67
2022/05/12 05:02:06;;;;;;;16.58;12.02;;;18.50;93.00;;;;;;5036581;28;20032;-68
2022/05/12 05:04:32;;;;;;;23.85;12.35;;;18.60;92.80;;;;;;5035997;28;20466;-67
2022/05/12 05:06:58;;;;;;;18.90;11.95;;;18.60;92.70;;;;;;5035650;28;20026;-68
2022/05/12 05:09:24;;;;;;;27.33;12.45;;;18.70;92.60;;;;;;5036052;28;20025;-71
2022/05/12 05:11:50;;;;;;;18.73;12.95;;;18.80;92.40;;;;;;5035822;28;20029;-68
2022/05/12 05:14:17;;;;;;;22.92;12.13;;;18.80;92.50;;;;;;5035605;28;20079;-69
2022/05/12 05:16:43;;;;;;;28.88;13.30;;;18.90;92.10;;;;;;5035354;28;20087;-68
2022/05/12 05:19:08;;;;;;;21.08;12.10;;;19.00;91.80;;;;;;5035550;28;20025;-69
2022/05/12 05:21:34;;;;;;;29.48;11.98;;;19.20;91.60;;;;;;5035689;28;20017;-69
2022/05/12 05:24:00;;;;;;;19.10;12.13;;;19.30;91.10;;;;;;5035455;28;20025;-68
2022/05/12 05:26:25;;;;;;;25.65;12.65;;;19.50;90.80;;;;;;5035441;28;20029;-68
2022/05/12 05:28:51;;;;;;;21.02;11.80;;;19.70;90.30;;;;;;5035370;28;20052;-68
2022/05/12 05:31:17;;;;;;;22.13;13.32;;;19.80;89.90;;;;;;5035471;28;20028;-67
2022/05/12 05:33:43;;;;;;;19.88;12.00;;;20.00;88.70;;;;;;5035569;28;20064;-70
2022/05/12 05:36:08;;;;;;;27.65;12.13;;;20.10;88.30;;;;;;5035212;28;20432;-68
2022/05/12 05:38:34;;;;;;;30.20;12.32;;;20.30;88.00;;;;;;5035324;28;20487;-71
2022/05/12 05:41:00;;;;;;;25.65;13.40;;;20.40;86.90;;;;;;5035391;28;20045;-69
2022/05/12 05:43:26;;;;;;;20.27;12.95;;;20.60;86.10;;;;;;5033907;28;20052;-67
2022/05/12 05:45:53;;;;;;;24.75;13.07;;;20.80;85.40;;;;;;5034701;28;20060;-68
2022/05/12 05:48:19;;;;;;;28.83;12.82;;;21.10;84.60;;;;;;5035079;28;20017;-68
2022/05/12 05:53:35;;;;;;;22.50;13.52;;;21.50;83.20;;;;;;5035115;28;20037;-69
2022/05/12 05:56:03;;;;;;;24.23;12.95;;;21.50;81.90;;;;;;5034754;28;20057;-67
2022/05/12 05:58:29;;;;;;;28.17;13.10;;;21.80;81.80;;;;;;5034919;28;20494;-68
2022/05/12 06:00:55;;;;;;;26.58;13.80;;;21.90;80.10;;;;;;5033901;28;20021;-68
2022/05/12 06:03:22;;;;;;;28.52;13.30;;;22.00;79.90;;;;;;5034796;28;20060;-68
2022/05/12 06:05:48;;;;;;;22.35;13.45;;;22.10;79.00;;;;;;5034622;28;20024;-68
2022/05/12 06:08:16;;;;;;;27.13;14.60;;;22.20;78.50;;;;;;5035074;28;20022;-69
2022/05/12 06:10:44;;;;;;;26.15;14.63;;;22.20;78.10;;;;;;5034426;28;20060;-68
2022/05/12 06:13:10;;;;;;;24.95;13.85;;;22.20;77.60;;;;;;5034727;28;20429;-68
2022/05/12 06:15:37;;;;;;;22.88;13.23;;;22.20;77.50;;;;;;5034749;28;20049;-69
2022/05/12 06:18:08;;;;;;;24.30;14.50;;;22.30;77.40;;;;;;5035080;28;20104;-69
2022/05/12 06:20:34;;;;;;;29.75;14.43;;;22.60;77.20;;;;;;5034507;28;20044;-69
2022/05/12 06:22:59;;;;;;;26.02;13.77;;;22.80;76.50;;;;;;5034742;28;20021;-68
2022/05/12 06:25:25;;;;;;;22.80;13.05;;;23.00;76.00;;;;;;5034312;28;20029;-69
2022/05/12 06:27:51;;;;;;;22.23;12.70;;;23.20;75.10;;;;;;5034440;28;20379;-71
2022/05/12 06:30:18;;;;;;;34.65;24.88;;;23.40;74.00;;;;;;5034221;28;20030;-68
2022/05/12 06:32:45;;;;;;;28.35;14.20;;;23.30;72.20;;;;;;5033021;28;20026;-70
2022/05/12 06:35:14;;;;;;;23.13;12.00;;;23.50;72.30;;;;;;5034242;28;20486;-69
2022/05/12 06:37:40;;;;;;;26.08;11.30;;;23.60;71.60;;;;;;5034008;28;20120;-68
2022/05/12 06:40:06;;;;;;;19.40;11.80;;;23.70;70.90;;;;;;5034065;28;20089;-68
2022/05/12 06:42:35;;;;;;;19.85;11.57;;;23.90;69.30;;;;;;5032381;28;20386;-68
2022/05/12 06:45:01;;;;;;;22.42;10.75;;;23.80;68.70;;;;;;5032287;28;20144;-69
2022/05/12 06:47:28;;;;;;;21.90;11.55;;;23.80;68.80;;;;;;5033885;28;20025;-70
2022/05/12 06:49:54;;;;;;;19.88;10.60;;;23.70;67.90;;;;;;5033814;28;20018;-69
2022/05/12 06:52:20;;;;;;;20.67;10.85;;;23.80;68.40;;;;;;5033937;28;20033;-67
2022/05/12 06:54:46;;;;;;;25.05;13.05;;;23.70;67.60;;;;;;5033737;28;20063;-71
2022/05/12 06:57:19;;;;;;;32.78;11.20;;;23.70;67.40;;;;;;5033845;28;20057;-68
2022/05/12 06:59:45;;;;;;;18.52;10.13;;;23.70;67.30;;;;;;5033725;28;20031;-70
2022/05/12 07:02:11;;;;;;;19.50;9.10;;;23.80;66.90;;;;;;5033903;28;20029;-70
2022/05/12 07:04:36;;;;;;;19.20;10.43;;;23.80;66.90;;;;;;5033618;28;20017;-71
2022/05/12 07:07:02;;;;;;;17.27;10.00;;;23.70;66.50;;;;;;5033763;28;20172;-70
2022/05/12 07:09:30;;;;;;;20.10;9.70;;;23.70;66.40;;;;;;5032165;28;20501;-71
2022/05/12 07:11:55;;;;;;;16.65;8.65;;;23.70;66.70;;;;;;5033330;28;20037;-70
2022/05/12 07:14:21;;;;;;;19.80;8.93;;;23.70;66.20;;;;;;5033515;28;20553;-67
2022/05/12 07:16:48;;;;;;;21.60;9.32;;;23.70;66.20;;;;;;5033412;28;20021;-69
2022/05/12 07:19:15;;;;;;;19.92;9.02;;;23.60;66.20;;;;;;5033372;28;20025;-70
2022/05/12 07:27:16;;;;;;;17.02;9.43;;;24.20;65.60;;;;;;5033364;28;20041;-70
2022/05/12 07:29:42;;;;;;;21.80;9.82;;;24.10;65.20;;;;;;5033315;28;20041;-69
2022/05/12 07:32:08;;;;;;;17.45;8.25;;;24.30;65.10;;;;;;5032949;28;20022;-69
2022/05/12 07:34:34;;;;;;;16.45;9.45;;;24.40;65.00;;;;;;5032714;28;20025;-69
2022/05/12 07:36:59;;;;;;;14.02;8.45;;;24.60;64.60;;;;;;5032152;28;20049;-69
2022/05/12 07:39:29;;;;;;;20.73;9.40;;;24.60;64.10;;;;;;5033179;28;20041;-68
2022/05/12 07:42:10;;;;;;;20.05;9.98;;;24.70;64.10;;;;;;4991075;28;20388;-69
2022/05/12 07:44:35;;;;;;;17.77;9.02;;;24.80;64.00;;;;;;4990723;28;20393;-70
2022/05/12 07:47:05;;;;;;;20.85;9.18;;;24.80;63.50;;;;;;4990721;28;20065;-70
2022/05/12 07:49:35;;;;;;;15.73;9.48;;;24.80;63.10;;;;;;4990793;28;20444;-70
2022/05/12 07:52:01;;;;;;;17.77;9.88;;;24.90;63.00;;;;;;4990731;28;20035;-68
2022/05/12 07:54:27;;;;;;;24.08;9.00;;;24.70;62.90;;;;;;4990988;28;20038;-69
2022/05/12 07:56:53;;;;;;;17.48;9.27;;;24.70;63.20;;;;;;4990628;28;20099;-71
2022/05/12 07:59:19;;;;;;;17.85;8.20;;;24.70;63.30;;;;;;4990692;28;20027;-71
2022/05/12 08:01:45;;;;;;;17.83;8.50;;;24.80;63.30;;;;;;4990340;28;20043;-68
2022/05/12 08:04:12;;;;;;;17.92;8.77;;;24.90;62.80;;;;;;4991050;28;20026;-68
2022/05/12 08:06:39;;;;;;;14.98;9.07;;;24.90;62.10;;;;;;4990434;28;20030;-69
2022/05/12 08:09:05;;;;;;;16.67;8.93;;;24.80;62.20;;;;;;4990534;28;20026;-69
2022/05/12 08:11:31;;;;;;;14.43;7.90;;;24.70;62.40;;;;;;4990293;28;20130;-70
2022/05/12 08:13:57;;;;;;;19.13;9.20;;;24.70;62.50;;;;;;4990097;28;20035;-67
2022/05/12 08:16:23;;;;;;;20.88;9.20;;;24.80;62.50;;;;;;4990200;28;20026;-71
2022/05/12 08:18:52;;;;;;;18.50;9.45;;;24.80;62.30;;;;;;4990321;28;20027;-69
2022/05/12 08:21:24;;;;;;;22.08;9.15;;;24.80;61.90;;;;;;4990477;28;20035;-69
2022/05/12 08:23:51;;;;;;;23.35;9.23;;;24.80;62.50;;;;;;4990157;28;20491;-69
2022/05/12 08:26:17;;;;;;;24.83;8.50;;;24.80;61.80;;;;;;4990373;28;20026;-70
2022/05/12 08:28:44;;;;;;;17.55;7.93;;;24.80;62.20;;;;;;4990120;28;20046;-69
2022/05/12 08:31:10;;;;;;;19.55;7.65;;;24.80;61.90;;;;;;4990215;28;20097;-68
2022/05/12 08:33:37;;;;;;;15.43;6.55;;;24.80;60.60;;;;;;4990515;28;20033;-71
2022/05/12 08:36:03;;;;;;;13.02;7.45;;;24.80;60.60;;;;;;4990190;28;20433;-70
2022/05/12 08:38:29;;;;;;;16.60;7.05;;;24.70;60.00;;;;;;4990049;28;20027;-70
2022/05/12 08:41:03;;;;;;;15.68;6.68;;;24.70;60.50;;;;;;4999505;28;20046;-71
2022/05/12 08:44:06;;;;;;;15.20;6.25;;;24.70;59.50;;;;;;5009586;28;20480;-69
2022/05/12 08:47:02;;;;;;;14.68;6.60;;;24.70;59.00;;;;;;4998055;28;20034;-68
2022/05/12 08:49:34;;;;;;;13.63;5.88;;;24.60;58.90;;;;;;5001046;28;20085;-70
2022/05/12 08:52:07;;;;;;;11.75;5.47;;;24.70;58.70;;;;;;5004306;28;20108;-68
2022/05/12 08:54:36;;;;;;;9.88;5.10;;;24.70;57.60;;;;;;4996203;28;20030;-71
2022/05/12 08:57:10;;;;;;;14.48;5.20;;;24.70;56.80;;;;;;4995994;28;20065;-70
2022/05/12 08:59:38;;;;;;;;;;;24.70;55.70;;;;;;4996425;28;20302;-70
2022/05/12 09:02:22;;;;;;;14.27;4.40;;;24.70;54.60;;;;;;4996036;28;20355;-69
2022/05/12 09:05:00;;;;;;;13.90;4.95;;;24.70;55.00;;;;;;4995821;28;20018;-70
2022/05/12 09:07:40;;;;;;;17.75;5.63;;;24.70;54.60;;;;;;4994388;28;20447;-70
2022/05/12 09:10:31;;;;;;;14.88;5.50;;;24.80;55.50;;;;;;4995975;28;20096;-72
2022/05/12 09:13:10;;;;;;;9.93;4.10;;;24.80;56.70;;;;;;4995799;28;20089;-69
2022/05/12 09:15:41;;;;;;;10.10;3.42;;;24.80;55.10;;;;;;4995892;28;20445;-70
2022/05/12 09:18:26;;;;;;;10.88;4.28;;;24.90;52.90;;;;;;4994290;28;20022;-69
2022/05/12 09:20:52;;;;;;;15.95;4.50;;;24.90;52.10;;;;;;4995209;28;20030;-70
2022/05/12 09:23:18;;;;;;;9.55;4.05;;;25.00;52.00;;;;;;4994959;28;20040;-68
2022/05/12 09:25:46;;;;;;;9.57;4.05;;;25.10;52.20;;;;;;4994915;28;20383;-69
2022/05/12 09:28:30;;;;;;;9.77;3.30;;;25.20;50.40;;;;;;4995489;28;20380;-69
2022/05/12 09:31:12;;;;;;;14.98;4.03;;;25.20;48.90;;;;;;4995514;28;20118;-70
2022/05/12 09:33:39;;;;;;;7.53;3.83;;;25.30;48.00;;;;;;4995470;28;20022;-69
2022/05/12 09:36:34;;;;;;;10.38;3.70;;;25.30;48.70;;;;;;4995029;28;20105;-71
2022/05/12 09:38:59;;;;;;;10.38;4.40;;;25.40;48.80;;;;;;4995324;28;20042;-74
2022/05/12 09:41:44;;;;;;;18.13;4.22;;;25.40;48.70;;;;;;4995316;28;20097;-71
2022/05/12 09:44:21;;;;;;;16.77;3.95;;;25.40;47.80;;;;;;4995240;28;20470;-68
2022/05/12 09:47:11;;;;;;;10.88;4.50;;;25.50;49.80;;;;;;4995123;28;20118;-68
2022/05/12 09:49:39;;;;;;;12.18;4.28;;;25.50;47.90;;;;;;4994978;28;20118;-68
2022/05/12 09:52:37;;;;;;;13.43;4.00;;;25.70;49.30;;;;;;4994872;28;20022;-69
2022/05/12 09:55:16;;;;;;;9.98;3.72;;;25.70;48.20;;;;;;4994872;28;20452;-68
2022/05/12 09:57:47;;;;;;;12.50;3.45;;;25.70;47.20;;;;;;4993874;28;20029;-69
2022/05/12 10:00:35;;;;;;;10.80;3.03;;;25.70;47.70;;;;;;4995067;28;20026;-71
2022/05/12 10:09:22;;;;;;;20.40;4.00;;;25.90;47.30;;;;;;4994960;28;20089;-72
2022/05/12 10:12:07;;;;;;;26.50;5.30;;;26.00;45.80;;;;;;4994278;28;20125;-74
2022/05/12 10:14:48;;;;;;;11.30;4.38;;;26.10;46.10;;;;;;4994800;28;20026;-74
2022/05/12 10:17:33;;;;;;;17.95;4.55;;;26.10;47.30;;;;;;4993639;28;20033;-70
2022/05/12 10:20:18;;;;;;;12.93;3.88;;;26.30;47.50;;;;;;4994499;28;20034;-72
2022/05/12 10:23:10;;;;;;;12.13;4.00;;;26.30;45.70;;;;;;4994370;28;20041;-71
2022/05/12 10:25:43;;;;;;;11.38;3.40;;;26.30;45.40;;;;;;4994113;28;20164;-70
2022/05/12 10:28:21;;;;;;;12.27;3.58;;;26.40;45.40;;;;;;4992727;28;20034;-71
2022/05/12 10:31:03;;;;;;;12.65;3.83;;;26.40;46.70;;;;;;4976554;28;20479;-70
2022/05/12 10:33:36;;;;;;;10.15;3.95;;;26.50;46.00;;;;;;4994216;28;20069;-72
2022/05/12 10:36:15;;;;;;;11.80;4.47;;;26.60;46.40;;;;;;4994115;28;20093;-70
2022/05/12 10:38:54;;;;;;;10.90;3.55;;;26.70;46.80;;;;;;4994039;28;20132;-72
2022/05/12 10:41:29;;;;;;;23.40;5.63;;;26.80;46.30;;;;;;4993650;28;20105;-71
2022/05/12 10:44:10;;;;;;;9.57;3.53;;;26.80;46.80;;;;;;4992578;28;20022;-70
2022/05/12 10:46:41;;;;;;;30.55;4.38;;;26.90;44.00;;;;;;4994119;28;20034;-70
2022/05/12 10:49:18;;;;;;;23.00;4.57;;;27.00;43.90;;;;;;4992548;28;20026;-70
2022/05/12 10:51:57;;;;;;;8.20;2.70;;;27.00;42.70;;;;;;4994057;28;20049;-70
2022/05/12 10:54:26;;;;;;;11.18;3.45;;;27.10;42.50;;;;;;4994213;28;20030;-68
2022/05/12 10:57:04;;;;;;;10.00;2.95;;;27.10;42.80;;;;;;4993775;28;20022;-71
2022/05/12 11:00:06;;;;;;;9.85;3.42;;;27.20;42.50;;;;;;4994104;28;20026;-68
2022/05/12 11:02:35;;;;;;;10.07;3.15;;;27.30;40.10;;;;;;4993915;28;20121;-69
2022/05/12 11:05:24;;;;;;;8.40;3.00;;;27.30;41.30;;;;;;4993593;28;20022;-69
2022/05/12 11:07:55;;;;;;;14.48;3.63;;;27.30;40.70;;;;;;4993548;28;20494;-69
2022/05/12 11:10:49;;;;;;;12.52;4.03;;;27.40;41.50;;;;;;4993951;28;20376;-69
2022/05/12 11:13:34;;;;;;;18.05;4.60;;;27.50;43.10;;;;;;4993028;28;20038;-69
2022/05/12 11:16:08;;;;;;;12.95;4.47;;;27.60;43.00;;;;;;4993166;28;20022;-71
2022/05/12 11:19:05;;;;;;;15.23;5.28;;;27.60;46.30;;;;;;4993784;28;20129;-68
2022/05/12 11:21:36;;;;;;;14.45;4.72;;;27.70;46.50;;;;;;4993455;28;20519;-69
2022/05/12 11:24:16;;;;;;;11.95;4.90;;;27.70;47.40;;;;;;4993248;28;20010;-70
2022/05/12 11:26:48;;;;;;;14.57;4.90;;;27.80;47.10;;;;;;4993724;28;20034;-68
2022/05/12 11:29:44;;;;;;;50.97;9.07;;;27.80;47.70;;;;;;4993478;28;20093;-68
2022/05/12 11:32:41;;;;;;;15.68;4.97;;;27.90;47.10;;;;;;4993393;28;20387;-68
2022/05/12 11:35:11;;;;;;;17.98;5.65;;;27.90;46.90;;;;;;4991835;28;20050;-68
2022/05/12 11:37:43;;;;;;;13.05;4.55;;;27.90;48.40;;;;;;4993277;28;20030;-68
2022/05/12 11:40:33;;;;;;;10.02;4.13;;;28.00;48.30;;;;;;4992869;28;20477;-70
2022/05/12 11:46:34;;;;;;;12.98;4.70;;;28.00;46.60;;;;;;4993697;28;20112;-69
2022/05/12 11:49:08;;;;;;;26.10;5.82;;;28.00;46.70;;;;;;4992975;28;20477;-70
2022/05/12 11:51:52;;;;;;;;;;;28.00;47.70;;;;;;4993691;28;20392;-71
2022/05/12 11:54:38;;;;;;;13.98;4.75;;;28.00;47.60;;;;;;4993170;28;19926;-69
2022/05/12 11:57:19;;;;;;;142.40;17.83;;;28.00;48.70;;;;;;4993415;28;20038;-70
2022/05/12 11:59:49;;;;;;;11.18;4.53;;;28.00;49.10;;;;;;4993166;28;20022;-71
2022/05/12 12:02:33;;;;;;;16.35;5.25;;;28.10;48.30;;;;;;4994119;28;20042;-70
2022/05/12 12:05:03;;;;;;;;;;;28.10;46.60;;;;;;4993881;28;20026;-71
2022/05/12 12:07:32;;;;;;;99.13;12.10;;;28.10;46.40;;;;;;4993414;28;19905;-71
2022/05/12 12:10:22;;;;;;;29.85;6.43;;;28.20;48.40;;;;;;4993236;28;20030;-73
2022/05/12 12:12:49;;;;;;;15.77;4.50;;;28.30;46.50;;;;;;4993137;28;20030;-71
2022/05/12 12:15:24;;;;;;;13.07;3.95;;;28.20;47.20;;;;;;4992726;28;20062;-70
2022/05/12 12:17:50;;;;;;;10.95;3.72;;;28.30;46.90;;;;;;4993079;28;20058;-71
2022/05/12 12:20:28;;;;;;;25.88;4.25;;;28.20;46.50;;;;;;4992732;28;20033;-70
2022/05/12 12:22:55;;;;;;;8.18;3.25;;;28.30;45.10;;;;;;4993161;28;20476;-71
2022/05/12 12:25:30;;;;;;;18.48;4.20;;;28.30;45.50;;;;;;4992895;28;20026;-69
2022/05/12 12:27:59;;;;;;;13.23;3.67;;;28.40;46.10;;;;;;4994994;28;20110;-70
2022/05/12 12:30:30;;;;;;;15.25;3.67;;;28.40;45.00;;;;;;4996991;28;20037;-69
2022/05/12 12:33:17;;;;;;;10.77;3.70;;;28.40;43.30;;;;;;4995331;28;20022;-70
2022/05/12 12:35:51;;;;;;;7.93;3.22;;;28.40;44.70;;;;;;4996717;28;20033;-71
2022/05/12 12:38:44;;;;;;;11.38;3.38;;;28.40;44.40;;;;;;4996627;28;20038;-74
2022/05/12 12:41:35;;;;;;;8.48;3.25;;;28.50;43.20;;;;;;4996991;28;20065;-73
2022/05/12 12:44:14;;;;;;;11.50;3.33;;;28.50;44.20;;;;;;4994631;28;20034;-72
2022/05/12 12:47:00;;;;;;;11.05;3.85;;;28.50;43.00;;;;;;4997221;28;20048;-73
2022/05/12 12:49:32;;;;;;;9.85;3.55;;;28.50;43.20;;;;;;4996512;28;20023;-72
2022/05/12 12:52:06;;;;;;;11.15;3.42;;;28.60;44.00;;;;;;4996883;28;20031;-79
2022/05/12 12:57:48;;;;;;;7.45;2.90;;;28.50;43.30;;;;;;4997144;28;20116;-71
2022/05/12 13:00:32;;;;;;;19.88;3.33;;;28.50;42.40;;;;;;4993835;28;20133;-71
2022/05/12 13:03:19;;;;;;;10.95;3.35;;;28.50;42.50;;;;;;4996208;28;20026;-72
2022/05/12 13:05:45;;;;;;;13.93;3.58;;;28.60;43.20;;;;;;4995945;28;20447;-72
2022/05/12 13:08:41;;;;;;;11.98;3.38;;;28.60;43.20;;;;;;4996001;28;20037;-70
2022/05/12 13:11:07;;;;;;;9.35;3.30;;;28.70;42.60;;;;;;4991635;28;20041;-69
2022/05/12 13:13:51;;;;;;;9.52;3.10;;;28.80;42.90;;;;;;4995467;28;20022;-70